sensor_id;sensor_type;location;lat;lon;timestamp;pressure;altitude;pressure_sealevel;temperature;humidity
79362;BME280;68830;47.566;19.012;2023-05-28T00:01:21;100206.13;;;15.91;55.23
79362;BME280;68830;47.566;19.012;2023-05-28T00:04:23;100202.34;;;15.85;57.08
79362;BME280;68830;47.566;19.012;2023-05-28T00:07:26;100191.56;;;15.70;56.47
79362;BME280;68830;47.566;19.012;2023-05-28T00:10:30;100197.03;;;15.77;58.34
79362;BME280;68830;47.566;19.012;2023-05-28T00:13:32;100206.59;;;15.71;53.71
79362;BME280;68830;47.566;19.012;2023-05-28T00:16:35;100203.56;;;15.74;53.75
79362;BME280;68830;47.566;19.012;2023-05-28T00:19:39;100199.94;;;15.67;54.43
79362;BME280;68830;47.566;19.012;2023-05-28T00:22:41;100204.94;;;15.70;55.09
79362;BME280;68830;47.566;19.012;2023-05-28T00:25:44;100200.88;;;15.74;51.68
79362;BME280;68830;47.566;19.012;2023-05-28T00:28:46;100186.22;;;15.70;51.89
79362;BME280;68830;47.566;19.012;2023-05-28T00:31:50;100201.69;;;15.83;51.81
79362;BME280;68830;47.566;19.012;2023-05-28T00:34:53;100169.41;;;15.62;52.61
79362;BME280;68830;47.566;19.012;2023-05-28T00:37:55;100191.28;;;15.65;55.78
79362;BME280;68830;47.566;19.012;2023-05-28T00:40:57;100176.47;;;15.86;49.90
79362;BME280;68830;47.566;19.012;2023-05-28T00:43:59;100176.41;;;15.94;50.30
79362;BME280;68830;47.566;19.012;2023-05-28T00:47:03;100172.41;;;15.90;51.80
79362;BME280;68830;47.566;19.012;2023-05-28T00:50:06;100152.59;;;15.84;50.61
79362;BME280;68830;47.566;19.012;2023-05-28T00:53:09;100111.56;;;15.54;51.23
79362;BME280;68830;47.566;19.012;2023-05-28T00:56:13;100165.22;;;15.67;53.27
79362;BME280;68830;47.566;19.012;2023-05-28T00:59:16;100175.00;;;15.75;50.49
79362;BME280;68830;47.566;19.012;2023-05-28T01:02:19;100117.38;;;15.58;49.46
79362;BME280;68830;47.566;19.012;2023-05-28T01:05:22;100071.97;;;15.35;48.69
79362;BME280;68830;47.566;19.012;2023-05-28T01:08:24;100162.69;;;15.74;50.24
79362;BME280;68830;47.566;19.012;2023-05-28T01:11:26;100164.75;;;15.64;51.49
79362;BME280;68830;47.566;19.012;2023-05-28T01:14:28;100159.59;;;15.62;49.74
79362;BME280;68830;47.566;19.012;2023-05-28T01:17:33;100162.75;;;15.66;50.84
79362;BME280;68830;47.566;19.012;2023-05-28T01:20:36;100147.09;;;15.54;49.10
79362;BME280;68830;47.566;19.012;2023-05-28T01:23:40;100163.25;;;15.61;49.79
79362;BME280;68830;47.566;19.012;2023-05-28T01:26:45;100157.06;;;15.61;53.83
79362;BME280;68830;47.566;19.012;2023-05-28T01:29:47;100146.72;;;15.58;51.73
79362;BME280;68830;47.566;19.012;2023-05-28T01:32:49;100149.50;;;15.72;50.96
79362;BME280;68830;47.566;19.012;2023-05-28T01:35:55;100153.41;;;15.62;50.89
79362;BME280;68830;47.566;19.012;2023-05-28T01:39:00;100152.91;;;15.58;50.62
79362;BME280;68830;47.566;19.012;2023-05-28T01:42:04;100145.34;;;15.70;51.98
79362;BME280;68830;47.566;19.012;2023-05-28T01:45:09;100137.31;;;15.78;47.80
79362;BME280;68830;47.566;19.012;2023-05-28T01:48:12;100150.22;;;15.66;52.49
79362;BME280;68830;47.566;19.012;2023-05-28T01:51:15;100144.13;;;15.80;49.53
79362;BME280;68830;47.566;19.012;2023-05-28T01:54:19;100147.00;;;15.71;49.65
79362;BME280;68830;47.566;19.012;2023-05-28T01:57:23;100149.06;;;15.61;51.06
79362;BME280;68830;47.566;19.012;2023-05-28T02:00:25;100144.63;;;15.45;52.91
79362;BME280;68830;47.566;19.012;2023-05-28T02:03:27;100141.13;;;15.44;52.84
79362;BME280;68830;47.566;19.012;2023-05-28T02:06:31;100144.69;;;15.37;54.26
79362;BME280;68830;47.566;19.012;2023-05-28T02:09:35;100140.81;;;15.39;51.15
79362;BME280;68830;47.566;19.012;2023-05-28T02:12:37;100140.72;;;15.33;50.92
79362;BME280;68830;47.566;19.012;2023-05-28T02:15:39;100145.06;;;15.25;55.57
79362;BME280;68830;47.566;19.012;2023-05-28T02:18:42;100119.59;;;15.15;53.58
79362;BME280;68830;47.566;19.012;2023-05-28T02:21:44;100137.88;;;15.34;52.24
79362;BME280;68830;47.566;19.012;2023-05-28T02:24:49;100133.91;;;15.22;52.56
79362;BME280;68830;47.566;19.012;2023-05-28T02:27:51;100126.13;;;15.12;55.47
79362;BME280;68830;47.566;19.012;2023-05-28T02:30:54;100133.75;;;15.15;53.90
79362;BME280;68830;47.566;19.012;2023-05-28T02:33:56;100131.94;;;15.16;54.33
79362;BME280;68830;47.566;19.012;2023-05-28T02:36:58;100135.56;;;15.23;52.31
79362;BME280;68830;47.566;19.012;2023-05-28T02:40:05;100137.22;;;15.32;52.14
79362;BME280;68830;47.566;19.012;2023-05-28T02:43:08;100136.59;;;15.22;53.79
79362;BME280;68830;47.566;19.012;2023-05-28T02:46:10;100133.94;;;15.14;53.97
79362;BME280;68830;47.566;19.012;2023-05-28T02:49:12;100111.88;;;14.89;54.54
79362;BME280;68830;47.566;19.012;2023-05-28T02:52:14;100135.81;;;15.05;54.66
79362;BME280;68830;47.566;19.012;2023-05-28T02:55:17;100128.84;;;15.04;52.27
79362;BME280;68830;47.566;19.012;2023-05-28T02:58:19;100130.97;;;15.09;54.66
79362;BME280;68830;47.566;19.012;2023-05-28T03:01:21;100135.28;;;15.18;53.90
79362;BME280;68830;47.566;19.012;2023-05-28T03:04:23;100135.97;;;15.12;55.63
79362;BME280;68830;47.566;19.012;2023-05-28T03:07:25;100113.50;;;14.98;54.98
79362;BME280;68830;47.566;19.012;2023-05-28T03:10:28;100109.22;;;14.89;56.17
79362;BME280;68830;47.566;19.012;2023-05-28T03:13:31;100118.91;;;14.82;55.35
79362;BME280;68830;47.566;19.012;2023-05-28T03:16:32;100128.25;;;14.86;55.91
79362;BME280;68830;47.566;19.012;2023-05-28T03:19:37;100131.03;;;14.92;57.27
79362;BME280;68830;47.566;19.012;2023-05-28T03:22:39;100115.06;;;14.84;55.89
79362;BME280;68830;47.566;19.012;2023-05-28T03:25:43;100133.47;;;15.10;57.06
79362;BME280;68830;47.566;19.012;2023-05-28T03:28:46;100133.53;;;14.94;60.86
79362;BME280;68830;47.566;19.012;2023-05-28T03:31:47;100137.22;;;14.85;59.57
79362;BME280;68830;47.566;19.012;2023-05-28T03:34:49;100128.72;;;14.89;59.61
79362;BME280;68830;47.566;19.012;2023-05-28T03:37:51;100127.50;;;15.00;59.83
79362;BME280;68830;47.566;19.012;2023-05-28T03:40:55;100123.16;;;14.99;59.04
79362;BME280;68830;47.566;19.012;2023-05-28T03:43:57;100118.50;;;15.01;56.25
79362;BME280;68830;47.566;19.012;2023-05-28T03:46:59;100128.09;;;15.18;57.49
79362;BME280;68830;47.566;19.012;2023-05-28T03:50:02;100127.88;;;15.28;56.56
79362;BME280;68830;47.566;19.012;2023-05-28T03:53:05;100132.53;;;15.34;55.91
79362;BME280;68830;47.566;19.012;2023-05-28T03:56:09;100130.81;;;15.41;56.47
79362;BME280;68830;47.566;19.012;2023-05-28T03:59:11;100126.28;;;15.50;56.84
79362;BME280;68830;47.566;19.012;2023-05-28T04:02:13;100125.72;;;15.54;54.87
79362;BME280;68830;47.566;19.012;2023-05-28T04:05:16;100120.56;;;15.53;57.89
79362;BME280;68830;47.566;19.012;2023-05-28T04:08:18;100132.72;;;15.55;57.40
79362;BME280;68830;47.566;19.012;2023-05-28T04:11:22;100119.66;;;15.69;55.85
79362;BME280;68830;47.566;19.012;2023-05-28T04:14:26;100124.25;;;15.83;53.85
79362;BME280;68830;47.566;19.012;2023-05-28T04:17:28;100121.63;;;15.98;53.95
79362;BME280;68830;47.566;19.012;2023-05-28T04:20:30;100118.06;;;15.82;56.13
79362;BME280;68830;47.566;19.012;2023-05-28T04:23:33;100118.16;;;15.89;56.52
79362;BME280;68830;47.566;19.012;2023-05-28T04:26:37;100112.25;;;15.79;57.47
79362;BME280;68830;47.566;19.012;2023-05-28T04:29:39;100121.81;;;15.96;56.63
79362;BME280;68830;47.566;19.012;2023-05-28T04:32:41;100124.56;;;16.03;53.99
79362;BME280;68830;47.566;19.012;2023-05-28T04:35:43;100115.03;;;16.08;55.23
79362;BME280;68830;47.566;19.012;2023-05-28T04:38:46;100127.50;;;16.31;51.41
79362;BME280;68830;47.566;19.012;2023-05-28T04:41:50;100129.94;;;16.40;52.64
79362;BME280;68830;47.566;19.012;2023-05-28T04:44:55;100132.69;;;16.47;54.31
79362;BME280;68830;47.566;19.012;2023-05-28T04:47:57;100127.53;;;16.46;53.98
79362;BME280;68830;47.566;19.012;2023-05-28T04:51:00;100132.25;;;16.58;51.85
79362;BME280;68830;47.566;19.012;2023-05-28T04:54:05;100135.44;;;16.77;51.42
79362;BME280;68830;47.566;19.012;2023-05-28T04:57:09;100136.63;;;16.89;50.24
79362;BME280;68830;47.566;19.012;2023-05-28T05:00:12;100131.75;;;16.92;50.67
79362;BME280;68830;47.566;19.012;2023-05-28T05:03:14;100137.28;;;17.06;50.31
79362;BME280;68830;47.566;19.012;2023-05-28T05:06:16;100131.28;;;17.03;50.20
79362;BME280;68830;47.566;19.012;2023-05-28T05:09:18;100131.53;;;17.09;50.13
79362;BME280;68830;47.566;19.012;2023-05-28T05:12:23;100132.16;;;17.25;50.97
79362;BME280;68830;47.566;19.012;2023-05-28T05:15:25;100127.25;;;17.29;49.51
79362;BME280;68830;47.566;19.012;2023-05-28T05:18:28;100132.31;;;17.39;49.73
79362;BME280;68830;47.566;19.012;2023-05-28T05:21:30;100128.63;;;17.40;50.50
79362;BME280;68830;47.566;19.012;2023-05-28T05:24:33;100107.50;;;17.30;52.95
79362;BME280;68830;47.566;19.012;2023-05-28T05:27:37;100127.69;;;17.47;51.17
79362;BME280;68830;47.566;19.012;2023-05-28T05:30:39;100118.38;;;17.43;51.03
79362;BME280;68830;47.566;19.012;2023-05-28T05:33:41;100124.69;;;17.57;51.56
79362;BME280;68830;47.566;19.012;2023-05-28T05:36:43;100130.94;;;17.79;49.38
79362;BME280;68830;47.566;19.012;2023-05-28T05:39:46;100115.44;;;17.74;48.71
79362;BME280;68830;47.566;19.012;2023-05-28T05:42:50;100128.84;;;17.96;48.66
79362;BME280;68830;47.566;19.012;2023-05-28T05:45:52;100129.53;;;18.04;49.01
79362;BME280;68830;47.566;19.012;2023-05-28T05:48:54;100131.44;;;18.10;50.37
79362;BME280;68830;47.566;19.012;2023-05-28T05:51:56;100114.66;;;18.02;50.57
79362;BME280;68830;47.566;19.012;2023-05-28T05:54:58;100119.69;;;18.11;49.22
79362;BME280;68830;47.566;19.012;2023-05-28T05:58:01;100105.50;;;18.17;50.42
79362;BME280;68830;47.566;19.012;2023-05-28T06:01:04;100120.44;;;18.27;50.33
79362;BME280;68830;47.566;19.012;2023-05-28T06:04:06;100129.56;;;18.32;51.36
79362;BME280;68830;47.566;19.012;2023-05-28T06:07:08;100126.97;;;18.45;51.70
79362;BME280;68830;47.566;19.012;2023-05-28T06:10:10;100132.38;;;18.52;50.05
79362;BME280;68830;47.566;19.012;2023-05-28T06:13:14;100132.00;;;18.55;48.06
79362;BME280;68830;47.566;19.012;2023-05-28T06:16:17;100137.28;;;18.70;50.10
79362;BME280;68830;47.566;19.012;2023-05-28T06:19:19;100134.88;;;18.81;51.62
79362;BME280;68830;47.566;19.012;2023-05-28T06:22:23;100139.47;;;18.88;49.96
79362;BME280;68830;47.566;19.012;2023-05-28T06:25:25;100138.47;;;18.95;48.22
79362;BME280;68830;47.566;19.012;2023-05-28T06:28:29;100145.25;;;18.91;49.48
79362;BME280;68830;47.566;19.012;2023-05-28T06:31:32;100136.41;;;18.97;51.02
79362;BME280;68830;47.566;19.012;2023-05-28T06:34:34;100137.75;;;19.15;51.89
79362;BME280;68830;47.566;19.012;2023-05-28T06:37:36;100148.50;;;19.15;47.83
79362;BME280;68830;47.566;19.012;2023-05-28T06:40:41;100138.38;;;19.17;48.39
79362;BME280;68830;47.566;19.012;2023-05-28T06:43:44;100142.31;;;19.27;49.27
79362;BME280;68830;47.566;19.012;2023-05-28T06:46:48;100146.50;;;19.36;48.17
79362;BME280;68830;47.566;19.012;2023-05-28T06:49:50;100139.22;;;19.24;48.34
79362;BME280;68830;47.566;19.012;2023-05-28T06:52:52;100129.72;;;19.21;47.63
79362;BME280;68830;47.566;19.012;2023-05-28T06:55:55;100130.28;;;19.58;47.91
79362;BME280;68830;47.566;19.012;2023-05-28T06:58:58;100147.88;;;19.67;48.46
79362;BME280;68830;47.566;19.012;2023-05-28T07:02:00;100134.69;;;19.92;47.18
79362;BME280;68830;47.566;19.012;2023-05-28T07:05:02;100130.78;;;20.08;47.28
79362;BME280;68830;47.566;19.012;2023-05-28T07:08:06;100122.50;;;20.09;46.74
79362;BME280;68830;47.566;19.012;2023-05-28T07:11:09;100113.38;;;20.04;44.73
79362;BME280;68830;47.566;19.012;2023-05-28T07:14:12;100121.47;;;20.17;46.98
79362;BME280;68830;47.566;19.012;2023-05-28T07:17:14;100111.78;;;20.42;45.68
79362;BME280;68830;47.566;19.012;2023-05-28T07:20:16;100118.34;;;20.66;47.76
79362;BME280;68830;47.566;19.012;2023-05-28T07:23:19;100124.16;;;20.63;45.61
79362;BME280;68830;47.566;19.012;2023-05-28T07:26:21;100107.50;;;20.93;47.60
79362;BME280;68830;47.566;19.012;2023-05-28T07:29:26;100131.34;;;20.89;46.32
79362;BME280;68830;47.566;19.012;2023-05-28T07:32:28;100128.50;;;20.51;45.79
79362;BME280;68830;47.566;19.012;2023-05-28T07:35:30;100122.50;;;20.49;47.55
79362;BME280;68830;47.566;19.012;2023-05-28T07:38:32;100110.09;;;20.61;47.32
79362;BME280;68830;47.566;19.012;2023-05-28T07:41:34;100109.78;;;20.96;48.09
79362;BME280;68830;47.566;19.012;2023-05-28T07:44:37;100122.97;;;21.17;45.96
79362;BME280;68830;47.566;19.012;2023-05-28T07:47:39;100120.03;;;21.32;47.11
79362;BME280;68830;47.566;19.012;2023-05-28T07:50:41;100111.53;;;21.35;46.06
79362;BME280;68830;47.566;19.012;2023-05-28T07:53:43;100119.75;;;21.46;43.90
79362;BME280;68830;47.566;19.012;2023-05-28T07:56:45;100120.38;;;21.42;44.29
79362;BME280;68830;47.566;19.012;2023-05-28T07:59:48;100122.25;;;21.41;45.99
79362;BME280;68830;47.566;19.012;2023-05-28T08:02:50;100054.56;;;21.25;46.47
79362;BME280;68830;47.566;19.012;2023-05-28T08:05:53;100054.00;;;20.58;48.13
79362;BME280;68830;47.566;19.012;2023-05-28T08:08:55;100039.69;;;20.64;47.49
79362;BME280;68830;47.566;19.012;2023-05-28T08:11:59;100050.06;;;20.61;46.59
79362;BME280;68830;47.566;19.012;2023-05-28T08:15:04;100046.47;;;20.80;47.09
79362;BME280;68830;47.566;19.012;2023-05-28T08:18:07;100046.19;;;19.64;45.60
79362;BME280;68830;47.566;19.012;2023-05-28T08:21:09;100040.34;;;20.46;47.92
79362;BME280;68830;47.566;19.012;2023-05-28T08:24:11;100052.66;;;20.80;46.69
79362;BME280;68830;47.566;19.012;2023-05-28T08:27:13;100061.47;;;20.56;46.25
79362;BME280;68830;47.566;19.012;2023-05-28T08:30:16;100051.72;;;20.48;48.99
79362;BME280;68830;47.566;19.012;2023-05-28T08:33:18;100105.47;;;20.88;45.60
79362;BME280;68830;47.566;19.012;2023-05-28T08:36:21;100105.53;;;21.26;44.61
79362;BME280;68830;47.566;19.012;2023-05-28T08:39:23;100104.81;;;21.51;45.20
79362;BME280;68830;47.566;19.012;2023-05-28T08:42:28;100078.59;;;21.64;43.39
79362;BME280;68830;47.566;19.012;2023-05-28T08:45:31;100104.63;;;21.45;44.14
79362;BME280;68830;47.566;19.012;2023-05-28T08:48:34;100096.97;;;21.42;43.93
79362;BME280;68830;47.566;19.012;2023-05-28T08:51:37;100092.88;;;21.33;44.43
79362;BME280;68830;47.566;19.012;2023-05-28T08:54:42;100087.66;;;21.76;43.94
79362;BME280;68830;47.566;19.012;2023-05-28T08:57:44;100091.78;;;22.04;44.73
79362;BME280;68830;47.566;19.012;2023-05-28T09:00:49;100088.25;;;22.10;44.20
79362;BME280;68830;47.566;19.012;2023-05-28T09:03:52;100041.31;;;21.61;43.83
79362;BME280;68830;47.566;19.012;2023-05-28T09:06:54;100057.88;;;21.65;45.63
79362;BME280;68830;47.566;19.012;2023-05-28T09:09:57;100046.31;;;21.83;45.44
79362;BME280;68830;47.566;19.012;2023-05-28T09:13:00;100052.72;;;22.13;43.47
79362;BME280;68830;47.566;19.012;2023-05-28T09:16:04;100064.81;;;21.47;44.86
79362;BME280;68830;47.566;19.012;2023-05-28T09:19:07;100055.81;;;21.92;45.26
79362;BME280;68830;47.566;19.012;2023-05-28T09:22:13;100039.03;;;22.15;44.55
79362;BME280;68830;47.566;19.012;2023-05-28T09:25:15;100048.63;;;22.11;44.44
79362;BME280;68830;47.566;19.012;2023-05-28T09:28:18;100024.69;;;22.39;44.15
79362;BME280;68830;47.566;19.012;2023-05-28T09:31:27;100034.97;;;21.99;44.32
79362;BME280;68830;47.566;19.012;2023-05-28T09:34:31;100036.66;;;22.43;43.54
79362;BME280;68830;47.566;19.012;2023-05-28T09:37:34;100038.19;;;22.57;46.65
79362;BME280;68830;47.566;19.012;2023-05-28T09:40:39;100025.16;;;22.04;44.29
79362;BME280;68830;47.566;19.012;2023-05-28T09:43:42;100029.28;;;22.14;43.73
79362;BME280;68830;47.566;19.012;2023-05-28T09:46:46;100028.28;;;21.83;45.06
79362;BME280;68830;47.566;19.012;2023-05-28T09:49:48;100026.69;;;21.44;42.79
79362;BME280;68830;47.566;19.012;2023-05-28T09:52:54;100037.13;;;22.40;42.04
79362;BME280;68830;47.566;19.012;2023-05-28T09:55:58;100034.34;;;23.32;43.09
79362;BME280;68830;47.566;19.012;2023-05-28T09:59:01;100030.44;;;23.58;39.64
79362;BME280;68830;47.566;19.012;2023-05-28T10:02:18;100033.00;;;22.92;39.60
79362;BME280;68830;47.566;19.012;2023-05-28T10:05:28;100024.50;;;23.07;43.64
79362;BME280;68830;47.566;19.012;2023-05-28T10:08:33;100023.03;;;22.56;40.77
79362;BME280;68830;47.566;19.012;2023-05-28T10:11:42;100019.25;;;23.54;39.48
79362;BME280;68830;47.566;19.012;2023-05-28T10:14:46;100018.31;;;22.52;39.08
79362;BME280;68830;47.566;19.012;2023-05-28T10:17:50;100011.94;;;22.83;40.29
79362;BME280;68830;47.566;19.012;2023-05-28T10:20:52;100012.31;;;23.46;43.70
79362;BME280;68830;47.566;19.012;2023-05-28T10:23:55;100009.94;;;23.92;42.47
79362;BME280;68830;47.566;19.012;2023-05-28T10:26:57;100006.94;;;23.58;40.45
79362;BME280;68830;47.566;19.012;2023-05-28T10:30:02;100003.81;;;23.43;36.16
79362;BME280;68830;47.566;19.012;2023-05-28T10:33:08;99997.41;;;23.14;38.37
79362;BME280;68830;47.566;19.012;2023-05-28T10:36:11;99998.97;;;23.87;38.07
79362;BME280;68830;47.566;19.012;2023-05-28T10:39:15;99988.09;;;23.51;35.93
79362;BME280;68830;47.566;19.012;2023-05-28T10:42:18;99990.66;;;23.05;39.47
79362;BME280;68830;47.566;19.012;2023-05-28T10:45:34;100000.66;;;23.04;37.87
79362;BME280;68830;47.566;19.012;2023-05-28T10:48:39;100000.69;;;23.16;38.33
79362;BME280;68830;47.566;19.012;2023-05-28T10:51:55;99992.28;;;23.66;37.48
79362;BME280;68830;47.566;19.012;2023-05-28T10:55:02;99976.63;;;24.14;37.86
79362;BME280;68830;47.566;19.012;2023-05-28T10:58:06;99980.63;;;23.89;38.46
79362;BME280;68830;47.566;19.012;2023-05-28T11:01:19;99989.16;;;23.50;38.00
79362;BME280;68830;47.566;19.012;2023-05-28T11:04:25;99982.19;;;23.96;37.92
79362;BME280;68830;47.566;19.012;2023-05-28T11:07:35;99972.41;;;24.07;39.91
79362;BME280;68830;47.566;19.012;2023-05-28T11:10:37;99963.72;;;24.05;40.78
79362;BME280;68830;47.566;19.012;2023-05-28T11:13:42;99964.75;;;24.39;37.72
79362;BME280;68830;47.566;19.012;2023-05-28T11:16:44;99939.69;;;24.32;37.85
79362;BME280;68830;47.566;19.012;2023-05-28T11:19:49;99966.28;;;24.35;34.52
79362;BME280;68830;47.566;19.012;2023-05-28T11:22:51;99959.56;;;24.26;35.93
79362;BME280;68830;47.566;19.012;2023-05-28T11:25:53;99952.59;;;24.53;37.38
79362;BME280;68830;47.566;19.012;2023-05-28T11:29:12;99945.47;;;23.89;33.88
79362;BME280;68830;47.566;19.012;2023-05-28T11:32:17;99945.94;;;24.09;36.38
79362;BME280;68830;47.566;19.012;2023-05-28T11:35:21;99953.94;;;24.15;32.67
79362;BME280;68830;47.566;19.012;2023-05-28T11:38:23;99943.59;;;24.12;35.04
79362;BME280;68830;47.566;19.012;2023-05-28T11:41:26;99938.44;;;24.63;36.26
79362;BME280;68830;47.566;19.012;2023-05-28T11:44:28;99925.53;;;25.27;32.46
79362;BME280;68830;47.566;19.012;2023-05-28T11:47:32;99918.56;;;25.81;35.82
79362;BME280;68830;47.566;19.012;2023-05-28T11:50:36;99916.16;;;25.01;34.57
79362;BME280;68830;47.566;19.012;2023-05-28T11:53:39;99926.72;;;24.46;35.46
79362;BME280;68830;47.566;19.012;2023-05-28T11:56:41;99931.69;;;24.25;35.95
79362;BME280;68830;47.566;19.012;2023-05-28T11:59:54;99925.22;;;24.26;40.57
79362;BME280;68830;47.566;19.012;2023-05-28T12:02:56;99915.22;;;24.38;36.62
79362;BME280;68830;47.566;19.012;2023-05-28T12:06:00;99914.59;;;25.05;36.97
79362;BME280;68830;47.566;19.012;2023-05-28T12:09:03;99907.66;;;25.76;36.59
79362;BME280;68830;47.566;19.012;2023-05-28T12:12:10;99912.47;;;25.41;36.87
79362;BME280;68830;47.566;19.012;2023-05-28T12:15:14;99908.94;;;25.57;36.48
79362;BME280;68830;47.566;19.012;2023-05-28T12:18:20;99909.59;;;25.81;34.91
79362;BME280;68830;47.566;19.012;2023-05-28T12:21:23;99926.03;;;25.57;36.71
79362;BME280;68830;47.566;19.012;2023-05-28T12:24:27;99912.06;;;25.66;37.21
79362;BME280;68830;47.566;19.012;2023-05-28T12:27:29;99889.41;;;24.93;35.11
79362;BME280;68830;47.566;19.012;2023-05-28T12:30:32;99915.19;;;25.41;37.82
79362;BME280;68830;47.566;19.012;2023-05-28T12:33:34;99917.44;;;25.60;37.15
79362;BME280;68830;47.566;19.012;2023-05-28T12:36:38;99913.72;;;24.59;38.02
79362;BME280;68830;47.566;19.012;2023-05-28T12:39:40;99915.41;;;25.06;35.78
79362;BME280;68830;47.566;19.012;2023-05-28T12:42:42;99904.13;;;24.40;36.43
79362;BME280;68830;47.566;19.012;2023-05-28T12:45:44;99911.44;;;24.39;36.53
79362;BME280;68830;47.566;19.012;2023-05-28T12:48:47;99913.63;;;24.83;39.69
79362;BME280;68830;47.566;19.012;2023-05-28T12:51:51;99902.94;;;24.76;36.06
79362;BME280;68830;47.566;19.012;2023-05-28T12:54:53;99890.66;;;24.57;37.58
79362;BME280;68830;47.566;19.012;2023-05-28T12:58:14;99896.16;;;24.62;35.41
79362;BME280;68830;47.566;19.012;2023-05-28T13:01:16;99897.47;;;24.88;36.03
79362;BME280;68830;47.566;19.012;2023-05-28T13:04:18;99896.00;;;24.52;34.65
79362;BME280;68830;47.566;19.012;2023-05-28T13:07:21;99891.03;;;24.77;36.89
79362;BME280;68830;47.566;19.012;2023-05-28T13:10:24;99884.06;;;25.43;34.88
79362;BME280;68830;47.566;19.012;2023-05-28T13:13:26;99877.66;;;25.16;34.15
79362;BME280;68830;47.566;19.012;2023-05-28T13:16:28;99891.84;;;25.06;34.88
79362;BME280;68830;47.566;19.012;2023-05-28T13:19:30;99896.94;;;25.02;35.67
79362;BME280;68830;47.566;19.012;2023-05-28T13:22:33;99875.53;;;25.35;31.61
79362;BME280;68830;47.566;19.012;2023-05-28T13:25:37;99877.91;;;25.48;32.00
79362;BME280;68830;47.566;19.012;2023-05-28T13:28:39;99888.56;;;24.76;33.22
79362;BME280;68830;47.566;19.012;2023-05-28T13:31:41;99878.28;;;25.56;31.41
79362;BME280;68830;47.566;19.012;2023-05-28T13:34:43;99870.16;;;25.56;32.08
79362;BME280;68830;47.566;19.012;2023-05-28T13:37:47;99882.59;;;25.19;30.44
79362;BME280;68830;47.566;19.012;2023-05-28T13:40:48;99879.09;;;24.61;31.67
79362;BME280;68830;47.566;19.012;2023-05-28T13:43:51;99876.81;;;24.98;33.77
79362;BME280;68830;47.566;19.012;2023-05-28T13:46:54;99860.59;;;25.15;35.11
79362;BME280;68830;47.566;19.012;2023-05-28T13:49:57;99859.50;;;25.33;34.14
79362;BME280;68830;47.566;19.012;2023-05-28T13:53:01;99865.31;;;25.08;38.72
79362;BME280;68830;47.566;19.012;2023-05-28T13:56:04;99840.56;;;24.71;32.59
79362;BME280;68830;47.566;19.012;2023-05-28T13:59:06;99864.63;;;25.85;31.84
79362;BME280;68830;47.566;19.012;2023-05-28T14:02:09;99857.84;;;26.04;29.60
79362;BME280;68830;47.566;19.012;2023-05-28T14:05:11;99866.56;;;25.51;31.16
79362;BME280;68830;47.566;19.012;2023-05-28T14:08:14;99852.97;;;24.84;31.15
79362;BME280;68830;47.566;19.012;2023-05-28T14:11:17;99847.06;;;25.54;30.50
79362;BME280;68830;47.566;19.012;2023-05-28T14:14:19;99838.16;;;25.03;31.15
79362;BME280;68830;47.566;19.012;2023-05-28T14:17:21;99846.13;;;24.81;30.85
79362;BME280;68830;47.566;19.012;2023-05-28T14:20:23;99827.78;;;24.83;32.75
79362;BME280;68830;47.566;19.012;2023-05-28T14:23:26;99831.44;;;24.77;30.34
79362;BME280;68830;47.566;19.012;2023-05-28T14:26:28;99836.38;;;25.64;31.13
79362;BME280;68830;47.566;19.012;2023-05-28T14:29:31;99833.69;;;25.47;30.00
79362;BME280;68830;47.566;19.012;2023-05-28T14:32:33;99836.28;;;24.75;30.65
79362;BME280;68830;47.566;19.012;2023-05-28T14:35:36;99827.63;;;25.23;29.20
79362;BME280;68830;47.566;19.012;2023-05-28T14:38:40;99832.81;;;24.63;30.93
79362;BME280;68830;47.566;19.012;2023-05-28T14:41:42;99831.81;;;24.52;30.84
79362;BME280;68830;47.566;19.012;2023-05-28T14:44:45;99831.66;;;24.30;31.82
79362;BME280;68830;47.566;19.012;2023-05-28T14:47:47;99838.56;;;23.98;34.48
79362;BME280;68830;47.566;19.012;2023-05-28T14:50:49;99821.81;;;23.61;35.82
79362;BME280;68830;47.566;19.012;2023-05-28T14:53:53;99841.56;;;23.61;33.12
79362;BME280;68830;47.566;19.012;2023-05-28T14:56:57;99819.22;;;23.77;33.04
79362;BME280;68830;47.566;19.012;2023-05-28T15:00:00;99817.00;;;24.03;33.03
79362;BME280;68830;47.566;19.012;2023-05-28T15:03:03;99789.69;;;24.16;32.07
79362;BME280;68830;47.566;19.012;2023-05-28T15:06:06;99819.94;;;24.13;32.66
79362;BME280;68830;47.566;19.012;2023-05-28T15:09:09;99820.41;;;24.10;30.97
79362;BME280;68830;47.566;19.012;2023-05-28T15:12:12;99798.66;;;23.65;35.58
79362;BME280;68830;47.566;19.012;2023-05-28T15:15:16;99806.59;;;23.95;31.92
79362;BME280;68830;47.566;19.012;2023-05-28T15:18:18;99817.09;;;23.79;40.46
79362;BME280;68830;47.566;19.012;2023-05-28T15:21:21;99822.25;;;23.69;31.46
79362;BME280;68830;47.566;19.012;2023-05-28T15:24:24;99794.72;;;23.84;34.71
79362;BME280;68830;47.566;19.012;2023-05-28T15:27:27;99818.38;;;23.77;32.10
79362;BME280;68830;47.566;19.012;2023-05-28T15:30:29;99814.53;;;23.61;32.76
79362;BME280;68830;47.566;19.012;2023-05-28T15:33:33;99802.06;;;23.48;31.87
79362;BME280;68830;47.566;19.012;2023-05-28T15:36:35;99810.75;;;23.39;35.55
79362;BME280;68830;47.566;19.012;2023-05-28T15:39:41;99791.97;;;23.32;38.01
79362;BME280;68830;47.566;19.012;2023-05-28T15:42:43;99799.09;;;23.26;34.27
79362;BME280;68830;47.566;19.012;2023-05-28T15:45:46;99804.16;;;23.35;32.90
79362;BME280;68830;47.566;19.012;2023-05-28T15:48:48;99803.00;;;23.31;35.98